sensor_id;sensor_type;location;lat;lon;timestamp;temperature;humidity
19058;DHT22;9662;53.612;9.914;2022-10-16T00:00:44;15.50;99.90
19058;DHT22;9662;53.612;9.914;2022-10-16T00:03:11;15.50;99.90
19058;DHT22;9662;53.612;9.914;2022-10-16T00:05:39;15.40;99.90
19058;DHT22;9662;53.612;9.914;2022-10-16T00:08:08;15.30;99.90
19058;DHT22;9662;53.612;9.914;2022-10-16T00:10:35;15.10;99.90
19058;DHT22;9662;53.612;9.914;2022-10-16T00:13:02;15.10;99.90
19058;DHT22;9662;53.612;9.914;2022-10-16T00:15:29;15.30;99.90
19058;DHT22;9662;53.612;9.914;2022-10-16T00:17:55;15.20;99.90
19058;DHT22;9662;53.612;9.914;2022-10-16T00:20:22;15.10;99.90
19058;DHT22;9662;53.612;9.914;2022-10-16T00:22:49;15.30;99.90
19058;DHT22;9662;53.612;9.914;2022-10-16T00:25:17;15.20;99.90
19058;DHT22;9662;53.612;9.914;2022-10-16T00:27:44;15.10;99.90
19058;DHT22;9662;53.612;9.914;2022-10-16T00:30:10;15.20;99.90
19058;DHT22;9662;53.612;9.914;2022-10-16T00:32:37;15.30;99.90
19058;DHT22;9662;53.612;9.914;2022-10-16T00:35:04;15.40;99.90
19058;DHT22;9662;53.612;9.914;2022-10-16T00:37:31;15.30;99.90
19058;DHT22;9662;53.612;9.914;2022-10-16T00:39:58;15.20;99.90
19058;DHT22;9662;53.612;9.914;2022-10-16T00:42:26;15.20;99.90
19058;DHT22;9662;53.612;9.914;2022-10-16T00:44:55;15.40;99.90
19058;DHT22;9662;53.612;9.914;2022-10-16T00:47:26;15.40;99.90
19058;DHT22;9662;53.612;9.914;2022-10-16T00:49:58;15.20;99.90
19058;DHT22;9662;53.612;9.914;2022-10-16T00:52:25;15.20;99.90
19058;DHT22;9662;53.612;9.914;2022-10-16T00:54:52;15.20;99.90
19058;DHT22;9662;53.612;9.914;2022-10-16T00:57:20;15.30;99.90
19058;DHT22;9662;53.612;9.914;2022-10-16T00:59:48;15.30;99.90
19058;DHT22;9662;53.612;9.914;2022-10-16T01:02:15;15.30;99.90
19058;DHT22;9662;53.612;9.914;2022-10-16T01:04:45;15.10;99.90
19058;DHT22;9662;53.612;9.914;2022-10-16T01:07:18;15.10;99.90
19058;DHT22;9662;53.612;9.914;2022-10-16T01:09:57;15.20;99.90
19058;DHT22;9662;53.612;9.914;2022-10-16T01:12:33;15.10;99.90
19058;DHT22;9662;53.612;9.914;2022-10-16T01:15:10;15.00;99.90
19058;DHT22;9662;53.612;9.914;2022-10-16T01:17:42;15.00;99.90
19058;DHT22;9662;53.612;9.914;2022-10-16T01:20:17;15.10;99.90
19058;DHT22;9662;53.612;9.914;2022-10-16T01:22:57;15.00;99.90
19058;DHT22;9662;53.612;9.914;2022-10-16T01:25:39;14.90;99.90
19058;DHT22;9662;53.612;9.914;2022-10-16T01:28:14;14.80;99.90
19058;DHT22;9662;53.612;9.914;2022-10-16T01:30:43;14.60;99.90
19058;DHT22;9662;53.612;9.914;2022-10-16T01:33:17;14.60;99.90
19058;DHT22;9662;53.612;9.914;2022-10-16T01:35:47;14.70;99.90
19058;DHT22;9662;53.612;9.914;2022-10-16T01:38:20;14.70;99.90
19058;DHT22;9662;53.612;9.914;2022-10-16T01:40:51;14.70;99.90
19058;DHT22;9662;53.612;9.914;2022-10-16T01:43:25;14.60;99.90
19058;DHT22;9662;53.612;9.914;2022-10-16T01:45:53;14.60;99.90
19058;DHT22;9662;53.612;9.914;2022-10-16T01:48:21;14.70;99.90
19058;DHT22;9662;53.612;9.914;2022-10-16T01:50:54;14.60;99.90
19058;DHT22;9662;53.612;9.914;2022-10-16T01:53:22;14.70;99.90
19058;DHT22;9662;53.612;9.914;2022-10-16T01:55:52;14.60;99.90
19058;DHT22;9662;53.612;9.914;2022-10-16T01:58:23;14.80;99.90
19058;DHT22;9662;53.612;9.914;2022-10-16T02:00:51;14.90;99.90
19058;DHT22;9662;53.612;9.914;2022-10-16T02:03:19;14.80;99.90
19058;DHT22;9662;53.612;9.914;2022-10-16T02:05:50;14.70;99.90
19058;DHT22;9662;53.612;9.914;2022-10-16T02:08:17;14.40;99.90
19058;DHT22;9662;53.612;9.914;2022-10-16T02:10:44;14.30;99.90
19058;DHT22;9662;53.612;9.914;2022-10-16T02:13:14;14.50;99.90
19058;DHT22;9662;53.612;9.914;2022-10-16T02:15:44;14.60;99.90
19058;DHT22;9662;53.612;9.914;2022-10-16T02:18:11;14.70;99.90
19058;DHT22;9662;53.612;9.914;2022-10-16T02:20:43;14.70;99.90
19058;DHT22;9662;53.612;9.914;2022-10-16T02:23:19;14.60;99.90
19058;DHT22;9662;53.612;9.914;2022-10-16T02:25:49;14.70;99.90
19058;DHT22;9662;53.612;9.914;2022-10-16T02:28:18;14.50;99.90
19058;DHT22;9662;53.612;9.914;2022-10-16T02:30:51;14.60;99.90
19058;DHT22;9662;53.612;9.914;2022-10-16T02:33:20;14.60;99.90
19058;DHT22;9662;53.612;9.914;2022-10-16T02:35:49;14.50;99.90
19058;DHT22;9662;53.612;9.914;2022-10-16T02:38:17;14.30;99.90
19058;DHT22;9662;53.612;9.914;2022-10-16T02:40:45;14.30;99.90
19058;DHT22;9662;53.612;9.914;2022-10-16T02:43:12;14.40;99.90
19058;DHT22;9662;53.612;9.914;2022-10-16T02:45:39;14.40;99.90
19058;DHT22;9662;53.612;9.914;2022-10-16T02:48:07;14.50;99.90
19058;DHT22;9662;53.612;9.914;2022-10-16T02:50:34;14.40;99.90
19058;DHT22;9662;53.612;9.914;2022-10-16T02:53:01;14.30;99.90
19058;DHT22;9662;53.612;9.914;2022-10-16T02:55:28;14.10;99.90
19058;DHT22;9662;53.612;9.914;2022-10-16T02:57:55;14.10;99.90
19058;DHT22;9662;53.612;9.914;2022-10-16T03:00:21;13.90;99.90
19058;DHT22;9662;53.612;9.914;2022-10-16T03:02:48;14.00;99.90
19058;DHT22;9662;53.612;9.914;2022-10-16T03:05:16;14.10;99.90
19058;DHT22;9662;53.612;9.914;2022-10-16T03:07:43;14.10;99.90
19058;DHT22;9662;53.612;9.914;2022-10-16T03:10:10;14.20;99.90
19058;DHT22;9662;53.612;9.914;2022-10-16T03:12:37;14.00;99.90
19058;DHT22;9662;53.612;9.914;2022-10-16T03:15:04;13.90;99.90
19058;DHT22;9662;53.612;9.914;2022-10-16T03:17:32;14.00;99.90
19058;DHT22;9662;53.612;9.914;2022-10-16T03:19:59;14.20;99.90
19058;DHT22;9662;53.612;9.914;2022-10-16T03:22:27;14.20;99.90
19058;DHT22;9662;53.612;9.914;2022-10-16T03:24:54;14.00;99.90
19058;DHT22;9662;53.612;9.914;2022-10-16T03:27:20;13.90;99.90
19058;DHT22;9662;53.612;9.914;2022-10-16T03:29:47;13.90;99.90
19058;DHT22;9662;53.612;9.914;2022-10-16T03:32:14;13.90;99.90
19058;DHT22;9662;53.612;9.914;2022-10-16T03:34:40;13.70;99.90
19058;DHT22;9662;53.612;9.914;2022-10-16T03:37:07;13.90;99.90
19058;DHT22;9662;53.612;9.914;2022-10-16T03:39:35;13.70;99.90
19058;DHT22;9662;53.612;9.914;2022-10-16T03:42:02;13.50;99.90
19058;DHT22;9662;53.612;9.914;2022-10-16T03:44:29;13.70;99.90
19058;DHT22;9662;53.612;9.914;2022-10-16T03:46:55;13.70;99.90
19058;DHT22;9662;53.612;9.914;2022-10-16T03:49:22;14.00;99.90
19058;DHT22;9662;53.612;9.914;2022-10-16T03:51:49;13.90;99.90
19058;DHT22;9662;53.612;9.914;2022-10-16T03:54:15;14.00;99.90
19058;DHT22;9662;53.612;9.914;2022-10-16T03:56:43;14.10;99.90
19058;DHT22;9662;53.612;9.914;2022-10-16T03:59:10;14.10;99.90
19058;DHT22;9662;53.612;9.914;2022-10-16T04:01:37;14.00;99.90
19058;DHT22;9662;53.612;9.914;2022-10-16T04:04:03;14.00;99.90
19058;DHT22;9662;53.612;9.914;2022-10-16T04:06:30;14.10;99.90
19058;DHT22;9662;53.612;9.914;2022-10-16T04:08:57;14.00;99.90
19058;DHT22;9662;53.612;9.914;2022-10-16T04:11:24;13.70;99.90
19058;DHT22;9662;53.612;9.914;2022-10-16T04:13:52;13.70;99.90
19058;DHT22;9662;53.612;9.914;2022-10-16T04:16:18;13.80;99.90
19058;DHT22;9662;53.612;9.914;2022-10-16T04:18:45;13.70;99.90
19058;DHT22;9662;53.612;9.914;2022-10-16T04:21:12;13.80;99.90
19058;DHT22;9662;53.612;9.914;2022-10-16T04:23:38;13.70;99.90
19058;DHT22;9662;53.612;9.914;2022-10-16T04:26:05;13.80;99.90
19058;DHT22;9662;53.612;9.914;2022-10-16T04:28:32;13.90;99.90
19058;DHT22;9662;53.612;9.914;2022-10-16T04:31:00;14.10;99.90
19058;DHT22;9662;53.612;9.914;2022-10-16T04:33:29;13.90;99.90
19058;DHT22;9662;53.612;9.914;2022-10-16T04:35:56;14.10;99.90
19058;DHT22;9662;53.612;9.914;2022-10-16T04:38:23;13.80;99.90
19058;DHT22;9662;53.612;9.914;2022-10-16T04:40:50;13.80;99.90
19058;DHT22;9662;53.612;9.914;2022-10-16T04:43:16;13.80;99.90
19058;DHT22;9662;53.612;9.914;2022-10-16T04:45:43;14.00;99.90
19058;DHT22;9662;53.612;9.914;2022-10-16T04:48:11;13.70;99.90
19058;DHT22;9662;53.612;9.914;2022-10-16T04:50:38;13.90;99.90
19058;DHT22;9662;53.612;9.914;2022-10-16T04:53:05;13.80;99.90
19058;DHT22;9662;53.612;9.914;2022-10-16T04:55:32;13.90;99.90
19058;DHT22;9662;53.612;9.914;2022-10-16T04:57:59;13.90;99.90
19058;DHT22;9662;53.612;9.914;2022-10-16T05:00:25;13.70;99.90
19058;DHT22;9662;53.612;9.914;2022-10-16T05:02:52;13.30;99.90
19058;DHT22;9662;53.612;9.914;2022-10-16T05:05:20;13.40;99.90
19058;DHT22;9662;53.612;9.914;2022-10-16T05:07:48;13.60;99.90
19058;DHT22;9662;53.612;9.914;2022-10-16T05:10:15;13.60;99.90
19058;DHT22;9662;53.612;9.914;2022-10-16T05:12:41;13.60;99.90
19058;DHT22;9662;53.612;9.914;2022-10-16T05:15:09;13.70;99.90
19058;DHT22;9662;53.612;9.914;2022-10-16T05:17:36;13.50;99.90
19058;DHT22;9662;53.612;9.914;2022-10-16T05:20:03;13.60;99.90
19058;DHT22;9662;53.612;9.914;2022-10-16T05:22:31;13.70;99.90
19058;DHT22;9662;53.612;9.914;2022-10-16T05:24:58;13.70;99.90
19058;DHT22;9662;53.612;9.914;2022-10-16T05:27:24;13.60;99.90
19058;DHT22;9662;53.612;9.914;2022-10-16T05:29:51;13.30;99.90
19058;DHT22;9662;53.612;9.914;2022-10-16T05:32:18;13.50;99.90
19058;DHT22;9662;53.612;9.914;2022-10-16T05:34:45;13.50;99.90
19058;DHT22;9662;53.612;9.914;2022-10-16T05:37:12;13.60;99.90
19058;DHT22;9662;53.612;9.914;2022-10-16T05:39:40;13.60;99.90
19058;DHT22;9662;53.612;9.914;2022-10-16T05:42:07;13.60;99.90
19058;DHT22;9662;53.612;9.914;2022-10-16T05:44:34;13.60;99.90
19058;DHT22;9662;53.612;9.914;2022-10-16T05:47:00;13.70;99.90
19058;DHT22;9662;53.612;9.914;2022-10-16T05:49:27;13.50;99.90
19058;DHT22;9662;53.612;9.914;2022-10-16T05:51:54;13.70;99.90
19058;DHT22;9662;53.612;9.914;2022-10-16T05:54:21;13.80;99.90
19058;DHT22;9662;53.612;9.914;2022-10-16T05:56:49;13.90;99.90
19058;DHT22;9662;53.612;9.914;2022-10-16T05:59:16;14.00;99.90
19058;DHT22;9662;53.612;9.914;2022-10-16T06:01:42;14.00;99.90
19058;DHT22;9662;53.612;9.914;2022-10-16T06:04:09;14.00;99.90
19058;DHT22;9662;53.612;9.914;2022-10-16T06:06:36;14.00;99.90
19058;DHT22;9662;53.612;9.914;2022-10-16T06:09:03;14.00;99.90
19058;DHT22;9662;53.612;9.914;2022-10-16T06:11:32;13.90;99.90
19058;DHT22;9662;53.612;9.914;2022-10-16T06:14:01;13.70;99.90
19058;DHT22;9662;53.612;9.914;2022-10-16T06:16:32;13.90;99.90
19058;DHT22;9662;53.612;9.914;2022-10-16T06:19:00;13.90;99.90
19058;DHT22;9662;53.612;9.914;2022-10-16T06:21:28;13.90;99.90
19058;DHT22;9662;53.612;9.914;2022-10-16T06:23:56;13.80;99.90
19058;DHT22;9662;53.612;9.914;2022-10-16T06:26:24;13.70;99.90
19058;DHT22;9662;53.612;9.914;2022-10-16T06:28:51;13.60;99.90
19058;DHT22;9662;53.612;9.914;2022-10-16T06:31:22;13.70;99.90
19058;DHT22;9662;53.612;9.914;2022-10-16T06:33:53;13.70;99.90
19058;DHT22;9662;53.612;9.914;2022-10-16T06:36:20;13.70;99.90
19058;DHT22;9662;53.612;9.914;2022-10-16T06:38:47;13.60;99.90
19058;DHT22;9662;53.612;9.914;2022-10-16T06:41:15;13.80;99.90
19058;DHT22;9662;53.612;9.914;2022-10-16T06:43:42;13.80;99.90
19058;DHT22;9662;53.612;9.914;2022-10-16T06:46:12;13.80;99.90
19058;DHT22;9662;53.612;9.914;2022-10-16T06:48:40;13.80;99.90
19058;DHT22;9662;53.612;9.914;2022-10-16T06:51:10;13.80;99.90
19058;DHT22;9662;53.612;9.914;2022-10-16T06:53:38;14.20;99.90
19058;DHT22;9662;53.612;9.914;2022-10-16T06:56:08;14.10;99.90
19058;DHT22;9662;53.612;9.914;2022-10-16T06:58:35;14.20;99.90
19058;DHT22;9662;53.612;9.914;2022-10-16T07:01:02;14.30;99.90
19058;DHT22;9662;53.612;9.914;2022-10-16T07:03:29;14.40;99.90
19058;DHT22;9662;53.612;9.914;2022-10-16T07:06:01;14.70;99.90
19058;DHT22;9662;53.612;9.914;2022-10-16T07:08:30;14.80;99.90
19058;DHT22;9662;53.612;9.914;2022-10-16T07:11:00;14.70;99.90
19058;DHT22;9662;53.612;9.914;2022-10-16T07:13:27;14.60;99.90
19058;DHT22;9662;53.612;9.914;2022-10-16T07:15:54;14.70;99.90
19058;DHT22;9662;53.612;9.914;2022-10-16T07:18:21;14.90;99.90
19058;DHT22;9662;53.612;9.914;2022-10-16T07:20:51;15.00;99.90
19058;DHT22;9662;53.612;9.914;2022-10-16T07:23:19;15.00;99.90
19058;DHT22;9662;53.612;9.914;2022-10-16T07:25:53;15.20;99.90
19058;DHT22;9662;53.612;9.914;2022-10-16T07:28:20;15.00;99.90
19058;DHT22;9662;53.612;9.914;2022-10-16T07:30:47;14.90;99.90
19058;DHT22;9662;53.612;9.914;2022-10-16T07:33:14;15.10;99.90
19058;DHT22;9662;53.612;9.914;2022-10-16T07:35:47;15.20;99.90
19058;DHT22;9662;53.612;9.914;2022-10-16T07:38:14;14.90;99.90
19058;DHT22;9662;53.612;9.914;2022-10-16T07:40:42;15.10;99.90
19058;DHT22;9662;53.612;9.914;2022-10-16T07:43:09;15.10;99.90
19058;DHT22;9662;53.612;9.914;2022-10-16T07:45:35;15.30;99.90
19058;DHT22;9662;53.612;9.914;2022-10-16T07:48:02;15.20;99.90
19058;DHT22;9662;53.612;9.914;2022-10-16T07:50:29;15.10;99.90
19058;DHT22;9662;53.612;9.914;2022-10-16T07:52:56;15.10;99.90
19058;DHT22;9662;53.612;9.914;2022-10-16T07:55:22;15.30;99.90
19058;DHT22;9662;53.612;9.914;2022-10-16T07:57:50;15.10;99.90
19058;DHT22;9662;53.612;9.914;2022-10-16T08:00:17;15.30;99.90
19058;DHT22;9662;53.612;9.914;2022-10-16T08:02:44;15.30;99.90
19058;DHT22;9662;53.612;9.914;2022-10-16T08:05:11;15.20;99.90
19058;DHT22;9662;53.612;9.914;2022-10-16T08:07:37;15.20;99.90
19058;DHT22;9662;53.612;9.914;2022-10-16T08:10:05;15.20;99.90
19058;DHT22;9662;53.612;9.914;2022-10-16T08:12:32;15.50;99.90
19058;DHT22;9662;53.612;9.914;2022-10-16T08:15:02;15.20;99.90
19058;DHT22;9662;53.612;9.914;2022-10-16T08:17:28;15.10;99.90
19058;DHT22;9662;53.612;9.914;2022-10-16T08:19:55;15.10;99.90
19058;DHT22;9662;53.612;9.914;2022-10-16T08:22:22;15.00;99.90
19058;DHT22;9662;53.612;9.914;2022-10-16T08:24:49;14.90;99.90
19058;DHT22;9662;53.612;9.914;2022-10-16T08:27:16;15.10;99.90
19058;DHT22;9662;53.612;9.914;2022-10-16T08:29:43;14.90;99.90
19058;DHT22;9662;53.612;9.914;2022-10-16T08:32:11;15.00;99.90
19058;DHT22;9662;53.612;9.914;2022-10-16T08:34:38;15.20;99.90
19058;DHT22;9662;53.612;9.914;2022-10-16T08:37:05;15.10;99.90
19058;DHT22;9662;53.612;9.914;2022-10-16T08:39:33;15.00;99.90
19058;DHT22;9662;53.612;9.914;2022-10-16T08:42:21;15.00;99.90
19058;DHT22;9662;53.612;9.914;2022-10-16T08:47:59;15.20;99.90
19058;DHT22;9662;53.612;9.914;2022-10-16T08:50:29;15.00;99.90
19058;DHT22;9662;53.612;9.914;2022-10-16T08:52:57;15.10;99.90
19058;DHT22;9662;53.612;9.914;2022-10-16T08:55:34;15.20;99.90
19058;DHT22;9662;53.612;9.914;2022-10-16T08:58:11;15.50;99.90
19058;DHT22;9662;53.612;9.914;2022-10-16T09:00:39;15.20;99.90
19058;DHT22;9662;53.612;9.914;2022-10-16T09:03:17;15.30;99.90
19058;DHT22;9662;53.612;9.914;2022-10-16T09:06:02;15.40;99.90
19058;DHT22;9662;53.612;9.914;2022-10-16T09:08:38;15.50;99.90
19058;DHT22;9662;53.612;9.914;2022-10-16T09:11:14;15.60;99.90
19058;DHT22;9662;53.612;9.914;2022-10-16T09:13:50;15.60;99.90
19058;DHT22;9662;53.612;9.914;2022-10-16T09:16:20;15.80;99.90
19058;DHT22;9662;53.612;9.914;2022-10-16T09:18:54;15.80;99.90
19058;DHT22;9662;53.612;9.914;2022-10-16T09:21:25;15.70;99.90
19058;DHT22;9662;53.612;9.914;2022-10-16T09:23:54;15.70;99.90
19058;DHT22;9662;53.612;9.914;2022-10-16T09:26:24;15.70;99.90
19058;DHT22;9662;53.612;9.914;2022-10-16T09:28:52;15.70;99.90
19058;DHT22;9662;53.612;9.914;2022-10-16T09:31:21;15.70;99.90
19058;DHT22;9662;53.612;9.914;2022-10-16T09:33:53;15.70;99.90
19058;DHT22;9662;53.612;9.914;2022-10-16T09:36:21;15.80;99.90
19058;DHT22;9662;53.612;9.914;2022-10-16T09:38:49;15.90;99.90
19058;DHT22;9662;53.612;9.914;2022-10-16T09:41:20;15.80;99.90
19058;DHT22;9662;53.612;9.914;2022-10-16T09:43:51;15.80;99.90
19058;DHT22;9662;53.612;9.914;2022-10-16T09:46:25;15.80;99.90
19058;DHT22;9662;53.612;9.914;2022-10-16T09:48:56;16.00;99.90
19058;DHT22;9662;53.612;9.914;2022-10-16T09:51:26;16.20;99.90
19058;DHT22;9662;53.612;9.914;2022-10-16T09:53:58;16.00;99.90
19058;DHT22;9662;53.612;9.914;2022-10-16T09:56:28;15.90;99.90
19058;DHT22;9662;53.612;9.914;2022-10-16T09:58:56;16.00;99.90
19058;DHT22;9662;53.612;9.914;2022-10-16T10:01:28;16.10;99.90
19058;DHT22;9662;53.612;9.914;2022-10-16T10:03:58;16.00;99.90
19058;DHT22;9662;53.612;9.914;2022-10-16T10:06:29;16.20;99.90
19058;DHT22;9662;53.612;9.914;2022-10-16T10:09:03;16.20;99.90
19058;DHT22;9662;53.612;9.914;2022-10-16T10:14:29;16.40;99.90
19058;DHT22;9662;53.612;9.914;2022-10-16T10:17:16;16.30;99.90
19058;DHT22;9662;53.612;9.914;2022-10-16T10:19:49;16.30;99.90
19058;DHT22;9662;53.612;9.914;2022-10-16T10:22:25;16.30;99.90
19058;DHT22;9662;53.612;9.914;2022-10-16T10:24:56;16.30;99.90
19058;DHT22;9662;53.612;9.914;2022-10-16T10:27:30;16.40;99.90
19058;DHT22;9662;53.612;9.914;2022-10-16T10:30:02;16.70;99.90
19058;DHT22;9662;53.612;9.914;2022-10-16T10:32:38;16.60;99.90
19058;DHT22;9662;53.612;9.914;2022-10-16T10:35:16;16.60;99.90
19058;DHT22;9662;53.612;9.914;2022-10-16T10:37:55;16.50;99.90
19058;DHT22;9662;53.612;9.914;2022-10-16T10:40:34;16.60;99.90
19058;DHT22;9662;53.612;9.914;2022-10-16T10:43:13;16.70;99.90
19058;DHT22;9662;53.612;9.914;2022-10-16T10:45:46;16.70;99.90
19058;DHT22;9662;53.612;9.914;2022-10-16T10:48:41;16.80;99.90
19058;DHT22;9662;53.612;9.914;2022-10-16T10:51:15;17.00;99.90
19058;DHT22;9662;53.612;9.914;2022-10-16T10:53:47;17.30;99.90
19058;DHT22;9662;53.612;9.914;2022-10-16T10:56:30;17.20;99.90
19058;DHT22;9662;53.612;9.914;2022-10-16T10:59:17;17.10;99.90
19058;DHT22;9662;53.612;9.914;2022-10-16T11:01:50;16.90;99.90
19058;DHT22;9662;53.612;9.914;2022-10-16T11:04:38;17.00;99.90
19058;DHT22;9662;53.612;9.914;2022-10-16T11:07:16;16.90;99.90
19058;DHT22;9662;53.612;9.914;2022-10-16T11:09:47;16.90;99.90
19058;DHT22;9662;53.612;9.914;2022-10-16T11:12:17;16.90;99.90
19058;DHT22;9662;53.612;9.914;2022-10-16T11:14:50;16.90;99.90
19058;DHT22;9662;53.612;9.914;2022-10-16T11:17:25;17.10;99.90
19058;DHT22;9662;53.612;9.914;2022-10-16T11:19:56;17.00;99.90
19058;DHT22;9662;53.612;9.914;2022-10-16T11:22:30;17.10;99.90
19058;DHT22;9662;53.612;9.914;2022-10-16T11:25:02;17.20;99.90
19058;DHT22;9662;53.612;9.914;2022-10-16T11:27:36;17.30;99.90
19058;DHT22;9662;53.612;9.914;2022-10-16T11:30:13;17.30;99.90
19058;DHT22;9662;53.612;9.914;2022-10-16T11:32:49;17.40;99.90
19058;DHT22;9662;53.612;9.914;2022-10-16T11:35:21;17.60;99.90
19058;DHT22;9662;53.612;9.914;2022-10-16T11:37:52;17.70;99.90
19058;DHT22;9662;53.612;9.914;2022-10-16T11:40:24;17.70;99.90
19058;DHT22;9662;53.612;9.914;2022-10-16T11:42:55;17.70;99.90
19058;DHT22;9662;53.612;9.914;2022-10-16T11:45:30;17.90;99.90
19058;DHT22;9662;53.612;9.914;2022-10-16T11:48:02;18.00;99.90
19058;DHT22;9662;53.612;9.914;2022-10-16T11:50:34;18.10;99.90
19058;DHT22;9662;53.612;9.914;2022-10-16T11:53:12;18.00;99.90
19058;DHT22;9662;53.612;9.914;2022-10-16T11:55:41;17.80;99.90
19058;DHT22;9662;53.612;9.914;2022-10-16T11:58:15;17.80;99.90
19058;DHT22;9662;53.612;9.914;2022-10-16T12:00:51;17.70;99.90
19058;DHT22;9662;53.612;9.914;2022-10-16T12:03:25;17.50;99.90
19058;DHT22;9662;53.612;9.914;2022-10-16T12:06:10;17.60;99.90
19058;DHT22;9662;53.612;9.914;2022-10-16T12:08:41;17.50;99.90
19058;DHT22;9662;53.612;9.914;2022-10-16T12:11:23;17.50;99.90
19058;DHT22;9662;53.612;9.914;2022-10-16T12:13:50;17.30;99.90
19058;DHT22;9662;53.612;9.914;2022-10-16T12:16:21;17.40;99.90
19058;DHT22;9662;53.612;9.914;2022-10-16T12:18:49;17.50;99.90
19058;DHT22;9662;53.612;9.914;2022-10-16T12:21:17;17.50;99.90
19058;DHT22;9662;53.612;9.914;2022-10-16T12:23:51;17.50;99.90
19058;DHT22;9662;53.612;9.914;2022-10-16T12:26:25;17.70;99.90
19058;DHT22;9662;53.612;9.914;2022-10-16T12:28:53;17.60;99.90
19058;DHT22;9662;53.612;9.914;2022-10-16T12:31:20;17.50;99.90
19058;DHT22;9662;53.612;9.914;2022-10-16T12:33:57;17.40;99.90
19058;DHT22;9662;53.612;9.914;2022-10-16T12:36:29;17.40;99.90
19058;DHT22;9662;53.612;9.914;2022-10-16T12:38:59;17.40;99.90
19058;DHT22;9662;53.612;9.914;2022-10-16T12:41:27;17.30;99.90
19058;DHT22;9662;53.612;9.914;2022-10-16T12:43:55;17.50;99.90
19058;DHT22;9662;53.612;9.914;2022-10-16T12:46:33;17.60;99.90
19058;DHT22;9662;53.612;9.914;2022-10-16T12:49:21;17.00;99.90
19058;DHT22;9662;53.612;9.914;2022-10-16T12:51:48;17.40;99.90
19058;DHT22;9662;53.612;9.914;2022-10-16T12:54:18;17.40;99.90
19058;DHT22;9662;53.612;9.914;2022-10-16T12:56:54;17.40;99.90
19058;DHT22;9662;53.612;9.914;2022-10-16T12:59:32;17.50;99.90
19058;DHT22;9662;53.612;9.914;2022-10-16T13:02:16;17.60;99.90
19058;DHT22;9662;53.612;9.914;2022-10-16T13:04:58;17.60;99.90
19058;DHT22;9662;53.612;9.914;2022-10-16T13:07:44;17.70;99.90
19058;DHT22;9662;53.612;9.914;2022-10-16T13:10:21;17.60;99.90
19058;DHT22;9662;53.612;9.914;2022-10-16T13:13:15;17.80;99.90
19058;DHT22;9662;53.612;9.914;2022-10-16T13:16:01;18.00;99.90
19058;DHT22;9662;53.612;9.914;2022-10-16T13:18:38;17.80;99.90
19058;DHT22;9662;53.612;9.914;2022-10-16T13:21:18;18.00;99.90
19058;DHT22;9662;53.612;9.914;2022-10-16T13:23:53;18.30;99.90
19058;DHT22;9662;53.612;9.914;2022-10-16T13:26:34;18.50;99.90
19058;DHT22;9662;53.612;9.914;2022-10-16T13:29:05;18.50;99.90
19058;DHT22;9662;53.612;9.914;2022-10-16T13:31:32;18.30;99.90
19058;DHT22;9662;53.612;9.914;2022-10-16T13:34:00;18.20;99.90
19058;DHT22;9662;53.612;9.914;2022-10-16T13:36:29;18.20;99.90
19058;DHT22;9662;53.612;9.914;2022-10-16T13:39:11;18.10;99.90
19058;DHT22;9662;53.612;9.914;2022-10-16T13:41:40;18.00;99.90
19058;DHT22;9662;53.612;9.914;2022-10-16T13:44:13;17.80;99.90
19058;DHT22;9662;53.612;9.914;2022-10-16T13:46:41;17.90;99.90
19058;DHT22;9662;53.612;9.914;2022-10-16T13:49:13;17.70;99.90
19058;DHT22;9662;53.612;9.914;2022-10-16T13:51:40;17.70;99.90
19058;DHT22;9662;53.612;9.914;2022-10-16T13:54:27;17.70;99.90
19058;DHT22;9662;53.612;9.914;2022-10-16T13:57:22;17.90;99.90
19058;DHT22;9662;53.612;9.914;2022-10-16T14:00:06;19.70;99.90
19058;DHT22;9662;53.612;9.914;2022-10-16T14:03:41;17.60;99.90
19058;DHT22;9662;53.612;9.914;2022-10-16T14:06:06;17.50;99.90
19058;DHT22;9662;53.612;9.914;2022-10-16T14:09:17;17.50;99.90
19058;DHT22;9662;53.612;9.914;2022-10-16T14:12:31;17.60;99.90
19058;DHT22;9662;53.612;9.914;2022-10-16T14:15:36;18.70;99.90
19058;DHT22;9662;53.612;9.914;2022-10-16T14:18:36;18.10;99.90
19058;DHT22;9662;53.612;9.914;2022-10-16T14:24:43;17.70;99.90
19058;DHT22;9662;53.612;9.914;2022-10-16T14:28:02;18.20;99.90
19058;DHT22;9662;53.612;9.914;2022-10-16T14:30:49;18.10;99.90
19058;DHT22;9662;53.612;9.914;2022-10-16T14:33:22;18.20;99.90
19058;DHT22;9662;53.612;9.914;2022-10-16T14:36:01;18.20;99.90
19058;DHT22;9662;53.612;9.914;2022-10-16T14:38:28;17.90;99.90
19058;DHT22;9662;53.612;9.914;2022-10-16T14:40:57;17.80;99.90
19058;DHT22;9662;53.612;9.914;2022-10-16T14:43:32;18.50;99.90
19058;DHT22;9662;53.612;9.914;2022-10-16T14:45:59;17.80;99.90
19058;DHT22;9662;53.612;9.914;2022-10-16T14:48:27;18.10;99.90
19058;DHT22;9662;53.612;9.914;2022-10-16T14:50:54;17.80;99.90
19058;DHT22;9662;53.612;9.914;2022-10-16T14:53:21;18.00;99.90
19058;DHT22;9662;53.612;9.914;2022-10-16T14:55:48;18.10;99.90
19058;DHT22;9662;53.612;9.914;2022-10-16T14:58:15;17.70;99.90
19058;DHT22;9662;53.612;9.914;2022-10-16T15:00:44;17.90;99.90
19058;DHT22;9662;53.612;9.914;2022-10-16T15:03:11;18.00;99.90
19058;DHT22;9662;53.612;9.914;2022-10-16T15:05:38;17.90;99.90
19058;DHT22;9662;53.612;9.914;2022-10-16T15:08:05;17.70;99.90
19058;DHT22;9662;53.612;9.914;2022-10-16T15:10:35;17.60;99.90
19058;DHT22;9662;53.612;9.914;2022-10-16T15:13:04;17.80;99.90
19058;DHT22;9662;53.612;9.914;2022-10-16T15:15:34;17.80;99.90
19058;DHT22;9662;53.612;9.914;2022-10-16T15:18:02;17.50;99.90
19058;DHT22;9662;53.612;9.914;2022-10-16T15:20:31;17.30;99.90
19058;DHT22;9662;53.612;9.914;2022-10-16T15:22:59;17.40;99.90
19058;DHT22;9662;53.612;9.914;2022-10-16T15:25:32;18.20;99.90
19058;DHT22;9662;53.612;9.914;2022-10-16T15:28:00;17.40;99.90
19058;DHT22;9662;53.612;9.914;2022-10-16T15:30:27;17.50;99.90
19058;DHT22;9662;53.612;9.914;2022-10-16T15:32:54;17.40;99.90
19058;DHT22;9662;53.612;9.914;2022-10-16T15:35:22;17.30;99.90
19058;DHT22;9662;53.612;9.914;2022-10-16T15:37:49;17.40;99.90
19058;DHT22;9662;53.612;9.914;2022-10-16T15:40:17;17.60;99.90
19058;DHT22;9662;53.612;9.914;2022-10-16T15:42:44;17.50;99.90
19058;DHT22;9662;53.612;9.914;2022-10-16T15:45:12;17.30;99.90
19058;DHT22;9662;53.612;9.914;2022-10-16T15:47:39;17.20;99.90
19058;DHT22;9662;53.612;9.914;2022-10-16T15:50:08;17.40;99.90
19058;DHT22;9662;53.612;9.914;2022-10-16T15:56:01;17.10;99.90
19058;DHT22;9662;53.612;9.914;2022-10-16T15:58:28;17.00;99.90
19058;DHT22;9662;53.612;9.914;2022-10-16T16:00:55;16.90;99.90
19058;DHT22;9662;53.612;9.914;2022-10-16T16:03:22;17.10;99.90
19058;DHT22;9662;53.612;9.914;2022-10-16T16:05:49;16.80;99.90
19058;DHT22;9662;53.612;9.914;2022-10-16T16:08:16;16.60;99.90
19058;DHT22;9662;53.612;9.914;2022-10-16T16:10:43;16.80;99.90
19058;DHT22;9662;53.612;9.914;2022-10-16T16:13:11;16.50;99.90
19058;DHT22;9662;53.612;9.914;2022-10-16T16:15:39;17.00;99.90
19058;DHT22;9662;53.612;9.914;2022-10-16T16:18:06;16.70;99.90
19058;DHT22;9662;53.612;9.914;2022-10-16T16:20:34;16.70;99.90